createdAt,value
2018-06-14T00:01:09.415Z,11.50
2018-06-14T00:03:36.158Z,11.50
2018-06-14T00:06:03.007Z,11.50
2018-06-14T00:08:29.859Z,11.40
2018-06-14T00:10:56.910Z,11.50
2018-06-14T00:13:24.270Z,11.40
2018-06-14T00:15:51.018Z,11.40
2018-06-14T00:18:17.766Z,11.50
2018-06-14T00:20:44.712Z,11.60
2018-06-14T00:23:11.666Z,11.50
2018-06-14T00:25:38.514Z,11.60
2018-06-14T00:28:05.571Z,11.70
2018-06-14T00:30:32.415Z,11.70
2018-06-14T00:32:59.263Z,11.80
2018-06-14T00:35:26.215Z,11.90
2018-06-14T00:37:53.061Z,11.90
2018-06-14T00:40:20.017Z,11.90
2018-06-14T00:42:46.763Z,12.00
2018-06-14T00:45:13.613Z,12.00
2018-06-14T00:47:40.561Z,12.00
2018-06-14T00:50:32.130Z,12.10
2018-06-14T00:53:05.882Z,12.20
2018-06-14T00:55:32.829Z,12.20
2018-06-14T00:58:00.905Z,12.30
2018-06-14T01:00:27.753Z,12.30
2018-06-14T01:02:54.608Z,12.30
2018-06-14T01:05:22.682Z,12.40
2018-06-14T01:07:49.630Z,12.30
2018-06-14T01:10:16.484Z,12.40
2018-06-14T01:12:43.350Z,12.40
2018-06-14T01:15:10.178Z,12.40
2018-06-14T01:17:37.129Z,12.40
2018-06-14T01:20:03.992Z,12.40
2018-06-14T01:22:31.338Z,12.50
2018-06-14T01:24:58.186Z,12.50
2018-06-14T01:27:25.136Z,12.50
2018-06-14T01:29:52.088Z,12.50
2018-06-14T01:32:20.470Z,12.60
2018-06-14T01:34:47.323Z,12.50
2018-06-14T01:37:14.272Z,12.60
2018-06-14T01:39:41.119Z,12.60
2018-06-14T01:42:07.967Z,12.60
2018-06-14T01:44:34.924Z,12.60
2018-06-14T01:47:01.771Z,12.70
2018-06-14T01:49:28.823Z,12.70
2018-06-14T01:51:55.668Z,12.70
2018-06-14T01:54:22.827Z,12.70
2018-06-14T01:56:49.594Z,12.70
2018-06-14T01:59:16.422Z,12.80
2018-06-14T02:01:43.369Z,12.80
2018-06-14T02:04:10.220Z,12.90
2018-06-14T02:06:37.479Z,12.90
2018-06-14T02:09:04.299Z,12.90
2018-06-14T02:11:31.070Z,12.90
2018-06-14T02:13:58.025Z,12.90
2018-06-14T02:16:24.870Z,13.00
2018-06-14T02:18:52.130Z,12.90
2018-06-14T02:21:19.079Z,13.00
2018-06-14T02:23:45.799Z,13.00
2018-06-14T02:26:13.332Z,13.10
2018-06-14T02:28:40.650Z,13.00
2018-06-14T02:31:07.502Z,13.10
2018-06-14T02:33:34.352Z,13.00
2018-06-14T02:36:01.196Z,13.10
2018-06-14T02:38:27.943Z,13.20
2018-06-14T02:40:54.791Z,13.00
2018-06-14T02:43:21.845Z,13.10
2018-06-14T02:45:48.794Z,13.00
2018-06-14T02:48:15.746Z,13.00
2018-06-14T02:50:43.108Z,12.90
2018-06-14T02:53:09.955Z,13.00
2018-06-14T02:55:36.806Z,13.00
2018-06-14T02:58:03.604Z,13.00
2018-06-14T03:00:30.502Z,13.00
2018-06-14T03:02:57.760Z,13.00
2018-06-14T03:05:24.514Z,13.00
2018-06-14T03:07:51.355Z,13.00
2018-06-14T03:10:18.307Z,12.90
2018-06-14T03:12:45.153Z,12.90
2018-06-14T03:15:12.311Z,13.00
2018-06-14T03:17:39.263Z,13.00
2018-06-14T03:20:06.110Z,13.00
2018-06-14T03:22:33.059Z,13.00
2018-06-14T03:24:59.910Z,13.20
2018-06-14T03:27:26.757Z,13.20
2018-06-14T03:29:53.604Z,13.30
2018-06-14T03:32:20.657Z,13.40
2018-06-14T03:34:47.430Z,13.40
2018-06-14T03:37:14.354Z,13.50
2018-06-14T03:39:41.202Z,13.70
2018-06-14T03:42:08.053Z,13.90
2018-06-14T03:44:34.900Z,14.10
2018-06-14T03:47:01.752Z,14.20
2018-06-14T03:49:28.600Z,14.30
2018-06-14T03:51:55.601Z,14.30
2018-06-14T03:54:23.737Z,14.60
2018-06-14T03:56:50.577Z,14.50
2018-06-14T03:59:17.531Z,14.60
2018-06-14T04:01:45.093Z,14.80
2018-06-14T04:04:11.940Z,14.70
2018-06-14T04:06:38.691Z,14.80
2018-06-14T04:09:05.745Z,14.60
2018-06-14T04:11:32.691Z,14.10
2018-06-14T04:13:59.544Z,13.90
2018-06-14T04:16:26.493Z,13.60
2018-06-14T04:18:53.341Z,13.40
2018-06-14T04:21:20.188Z,13.30
2018-06-14T04:23:48.128Z,13.20
2018-06-14T04:26:15.629Z,13.20
2018-06-14T04:28:43.157Z,13.20
2018-06-14T04:31:10.745Z,13.20
2018-06-14T04:33:37.706Z,13.10
2018-06-14T04:36:04.561Z,13.20
2018-06-14T04:38:31.541Z,13.10
2018-06-14T04:40:59.176Z,13.10
2018-06-14T04:43:26.126Z,13.10
2018-06-14T04:45:53.254Z,13.10
2018-06-14T04:48:20.697Z,13.10
2018-06-14T04:50:48.512Z,13.20
2018-06-14T04:53:15.254Z,13.40
2018-06-14T04:55:43.571Z,13.40
2018-06-14T04:58:11.925Z,13.30
2018-06-14T05:00:38.771Z,13.30
2018-06-14T05:03:06.542Z,13.30
2018-06-14T05:05:34.238Z,13.30
2018-06-14T05:08:01.161Z,13.40
2018-06-14T05:10:28.114Z,13.50
2018-06-14T05:12:55.167Z,13.70
2018-06-14T05:15:22.014Z,14.50
2018-06-14T05:17:48.863Z,16.60
2018-06-14T05:20:16.026Z,18.50
2018-06-14T05:22:43.125Z,20.90
2018-06-14T05:25:10.027Z,22.30
2018-06-14T05:27:36.975Z,24.20
2018-06-14T05:30:03.923Z,23.10
2018-06-14T05:32:30.877Z,23.20
2018-06-14T05:34:57.826Z,23.30
2018-06-14T05:37:24.776Z,23.30
2018-06-14T05:39:51.628Z,25.60
2018-06-14T05:42:18.867Z,26.70
2018-06-14T05:44:45.637Z,26.80
2018-06-14T05:47:12.887Z,25.50
2018-06-14T05:49:39.737Z,25.20
2018-06-14T05:52:06.810Z,25.20
2018-06-14T05:54:33.743Z,25.10
2018-06-14T05:57:00.591Z,23.70
2018-06-14T05:59:27.456Z,22.00
2018-06-14T06:01:54.494Z,21.00
2018-06-14T06:04:21.335Z,21.10
2018-06-14T06:06:48.292Z,21.00
2018-06-14T06:09:15.550Z,20.10
2018-06-14T06:11:42.499Z,20.20
2018-06-14T06:14:09.522Z,20.60
2018-06-14T06:16:37.527Z,23.60
2018-06-14T06:19:04.478Z,23.50
2018-06-14T06:21:31.432Z,23.30
2018-06-14T06:23:58.380Z,23.20
2018-06-14T06:26:25.313Z,23.40
2018-06-14T06:28:52.183Z,23.50
2018-06-14T06:31:19.031Z,23.30
2018-06-14T06:33:45.980Z,23.30
2018-06-14T06:36:12.829Z,23.90
2018-06-14T06:38:39.847Z,24.80
2018-06-14T06:41:07.040Z,24.70
2018-06-14T06:43:33.989Z,25.50
2018-06-14T06:46:00.938Z,25.00
2018-06-14T06:48:27.788Z,26.10
2018-06-14T06:50:54.635Z,26.30
2018-06-14T06:53:21.593Z,26.20
2018-06-14T06:55:48.435Z,26.80
2018-06-14T06:58:15.282Z,25.60
2018-06-14T07:00:42.854Z,25.10
2018-06-14T07:03:10.009Z,25.00
2018-06-14T07:05:37.776Z,25.90
2018-06-14T07:08:04.827Z,25.90
2018-06-14T07:10:31.983Z,26.60
2018-06-14T07:12:58.838Z,26.10
2018-06-14T07:15:25.685Z,25.50
2018-06-14T07:17:52.635Z,24.00
2018-06-14T07:20:19.480Z,24.10
2018-06-14T07:22:46.430Z,25.20
2018-06-14T07:25:13.384Z,25.50
2018-06-14T07:27:40.140Z,26.50
2018-06-14T07:30:07.185Z,27.60
2018-06-14T07:32:34.136Z,28.20
2018-06-14T07:35:00.981Z,28.80
2018-06-14T07:37:27.830Z,29.00
2018-06-14T07:39:54.576Z,28.60
2018-06-14T07:42:21.528Z,29.00
2018-06-14T07:44:48.382Z,28.50
2018-06-14T07:47:15.326Z,29.00
2018-06-14T07:49:42.180Z,28.70
2018-06-14T07:52:09.028Z,27.60
2018-06-14T07:54:36.077Z,28.50
2018-06-14T07:57:02.926Z,28.30
2018-06-14T07:59:29.773Z,28.50
2018-06-14T08:01:56.838Z,28.60
2018-06-14T08:04:23.779Z,27.50
2018-06-14T08:06:51.549Z,26.50
2018-06-14T08:09:18.396Z,26.40
2018-06-14T08:11:53.111Z,25.70
2018-06-14T08:14:20.898Z,24.30
2018-06-14T08:16:47.846Z,24.30
2018-06-14T08:19:14.797Z,24.30
2018-06-14T08:21:41.626Z,24.50
2018-06-14T08:24:08.496Z,24.40
2018-06-14T08:26:35.344Z,23.90
2018-06-14T08:29:02.402Z,24.20
2018-06-14T08:31:29.350Z,24.70
2018-06-14T08:33:56.299Z,24.30
2018-06-14T08:36:23.661Z,24.70
2018-06-14T08:38:50.507Z,25.30
2018-06-14T08:41:17.359Z,25.00
2018-06-14T08:43:44.204Z,24.10
2018-06-14T08:46:11.157Z,23.50
2018-06-14T08:48:38.220Z,23.70
2018-06-14T08:51:05.162Z,24.80
2018-06-14T08:53:32.114Z,23.90
2018-06-14T08:55:58.959Z,23.70
2018-06-14T08:58:25.922Z,24.30
2018-06-14T09:00:52.759Z,24.70
2018-06-14T09:03:21.212Z,24.20
2018-06-14T09:05:48.213Z,23.10
2018-06-14T09:08:15.146Z,23.70
2018-06-14T09:10:42.302Z,24.20
2018-06-14T09:13:09.682Z,24.30
2018-06-14T09:15:36.717Z,23.50
2018-06-14T09:18:03.564Z,23.00
2018-06-14T09:20:30.516Z,22.70
2018-06-14T09:22:57.469Z,22.80
2018-06-14T09:25:24.317Z,23.20
2018-06-14T09:27:51.573Z,23.30
2018-06-14T09:30:18.526Z,23.10
2018-06-14T09:32:45.736Z,22.90
2018-06-14T09:35:13.452Z,23.90
2018-06-14T09:37:40.299Z,23.90
2018-06-14T09:40:07.351Z,24.30
2018-06-14T09:42:34.201Z,24.50
2018-06-14T09:45:01.158Z,24.60
2018-06-14T09:47:28.510Z,24.50
2018-06-14T09:49:55.361Z,24.40
2018-06-14T09:52:22.312Z,24.50
2018-06-14T09:54:49.363Z,24.20
2018-06-14T09:57:16.212Z,23.90
2018-06-14T09:59:43.164Z,24.70
2018-06-14T10:02:10.526Z,24.20
2018-06-14T10:04:37.799Z,24.30
2018-06-14T10:07:04.649Z,24.30
2018-06-14T10:09:32.250Z,24.40
2018-06-14T10:11:59.995Z,24.00
2018-06-14T10:14:26.917Z,23.90
2018-06-14T10:16:53.766Z,23.50
2018-06-14T10:19:20.921Z,24.00
2018-06-14T10:21:47.956Z,24.00
2018-06-14T10:24:14.926Z,23.90
2018-06-14T10:26:42.289Z,23.60
2018-06-14T10:29:09.240Z,23.50
2018-06-14T10:31:36.186Z,23.20
2018-06-14T10:34:03.035Z,23.60
2018-06-14T10:36:29.988Z,23.90
2018-06-14T10:38:56.836Z,23.50
2018-06-14T10:41:23.684Z,23.10
2018-06-14T10:43:50.533Z,23.20
2018-06-14T10:46:17.381Z,22.50
2018-06-14T10:48:44.127Z,22.60
2018-06-14T10:51:11.184Z,23.20
2018-06-14T10:53:38.030Z,23.20
2018-06-14T10:56:04.881Z,23.60
2018-06-14T10:58:31.630Z,23.20
2018-06-14T11:00:58.575Z,23.00
2018-06-14T11:03:25.377Z,22.80
2018-06-14T11:05:52.913Z,22.70
2018-06-14T11:08:19.739Z,22.70
2018-06-14T11:10:47.508Z,22.50
2018-06-14T11:13:14.469Z,22.50
2018-06-14T11:15:41.414Z,22.70
2018-06-14T11:18:08.259Z,22.50
2018-06-14T11:20:35.207Z,22.00
2018-06-14T11:23:02.160Z,22.00
2018-06-14T11:25:29.008Z,22.30
2018-06-14T11:27:55.854Z,22.40
2018-06-14T11:30:22.704Z,22.90
2018-06-14T11:32:49.657Z,22.60
2018-06-14T11:35:16.609Z,23.00
2018-06-14T11:37:43.352Z,23.60
2018-06-14T11:40:10.203Z,23.40
2018-06-14T11:42:37.257Z,23.20
2018-06-14T11:45:04.209Z,23.00
2018-06-14T11:47:31.158Z,22.40
2018-06-14T11:49:58.005Z,22.30
2018-06-14T11:52:24.751Z,22.40
2018-06-14T11:54:51.703Z,22.70
2018-06-14T11:57:18.550Z,22.50
2018-06-14T11:59:45.399Z,22.50
2018-06-14T12:02:12.558Z,22.30
2018-06-14T12:04:40.026Z,22.50
2018-06-14T12:07:06.868Z,22.30
2018-06-14T12:09:36.758Z,22.10
2018-06-14T12:12:05.478Z,22.30
2018-06-14T12:14:32.426Z,22.30
2018-06-14T12:16:59.798Z,22.60
2018-06-14T12:19:26.640Z,22.50
2018-06-14T12:21:53.734Z,22.50
2018-06-14T12:24:21.588Z,23.00
2018-06-14T12:26:48.412Z,23.00
2018-06-14T12:29:15.365Z,23.50
2018-06-14T12:31:42.363Z,23.90
2018-06-14T12:34:09.367Z,24.30
2018-06-14T12:36:36.830Z,24.20
2018-06-14T12:39:03.788Z,24.10
2018-06-14T12:41:30.627Z,24.00
2018-06-14T12:43:57.580Z,23.50
2018-06-14T12:46:24.430Z,23.00
2018-06-14T12:48:51.280Z,22.40
2018-06-14T12:51:18.124Z,22.40
2018-06-14T12:53:44.973Z,22.10
2018-06-14T12:56:11.821Z,22.10
2018-06-14T12:58:38.575Z,22.20
2018-06-14T13:01:05.342Z,22.10
2018-06-14T13:03:32.162Z,22.10
2018-06-14T13:05:59.113Z,22.20
2018-06-14T13:08:25.945Z,22.40
2018-06-14T13:10:52.913Z,22.50
2018-06-14T13:13:20.583Z,22.60
2018-06-14T13:15:47.534Z,22.60
2018-06-14T13:18:15.301Z,22.20
2018-06-14T13:20:42.253Z,22.10
2018-06-14T13:23:09.406Z,22.00
2018-06-14T13:25:36.261Z,22.10
2018-06-14T13:28:03.104Z,22.40
2018-06-14T13:30:29.955Z,22.60
2018-06-14T13:32:56.820Z,22.70
2018-06-14T13:35:23.653Z,22.60
2018-06-14T13:37:50.504Z,23.20
2018-06-14T13:40:17.451Z,23.20
2018-06-14T13:42:44.266Z,23.20
2018-06-14T13:45:11.148Z,23.40
2018-06-14T13:47:37.995Z,23.40
2018-06-14T13:50:04.843Z,23.70
2018-06-14T13:52:31.593Z,23.40
2018-06-14T13:54:58.443Z,22.90
2018-06-14T13:57:25.701Z,22.90
2018-06-14T13:59:52.652Z,22.80
2018-06-14T14:02:19.496Z,22.40
2018-06-14T14:04:46.348Z,22.40
2018-06-14T14:07:13.299Z,22.90
2018-06-14T14:09:40.147Z,23.00
2018-06-14T14:12:06.995Z,23.10
2018-06-14T14:14:34.818Z,23.40
2018-06-14T14:17:01.717Z,23.40
2018-06-14T14:19:28.667Z,23.60
2018-06-14T14:21:55.433Z,23.40
2018-06-14T14:24:22.363Z,23.10
2018-06-14T14:26:49.211Z,23.20
2018-06-14T14:29:16.061Z,23.30
2018-06-14T14:31:42.806Z,23.10
2018-06-14T14:34:09.760Z,22.60
2018-06-14T14:36:36.562Z,22.20
2018-06-14T14:39:04.177Z,21.80
2018-06-14T14:41:31.020Z,21.80
2018-06-14T14:43:57.972Z,21.80
2018-06-14T14:46:24.819Z,21.80
2018-06-14T14:48:51.774Z,22.10
2018-06-14T14:51:18.618Z,22.00
2018-06-14T14:53:45.365Z,22.00
2018-06-14T14:56:12.625Z,21.80
2018-06-14T14:58:39.392Z,22.00
2018-06-14T15:01:06.219Z,22.00
2018-06-14T15:03:33.071Z,22.20
2018-06-14T15:06:00.022Z,22.20
2018-06-14T15:08:27.173Z,22.10
2018-06-14T15:10:55.557Z,22.20
2018-06-14T15:13:22.510Z,22.20
2018-06-14T15:15:50.178Z,22.30
2018-06-14T15:18:17.127Z,22.20
2018-06-14T15:20:43.898Z,21.80
2018-06-14T15:23:10.723Z,21.50
2018-06-14T15:25:37.522Z,21.40
2018-06-14T15:28:04.420Z,21.30
2018-06-14T15:30:31.371Z,21.60
2018-06-14T15:32:58.322Z,21.60
2018-06-14T15:35:25.277Z,21.50
2018-06-14T15:37:52.122Z,21.40
2018-06-14T15:40:21.777Z,21.00
2018-06-14T15:42:48.684Z,20.90
2018-06-14T15:45:15.633Z,21.00
2018-06-14T15:47:42.792Z,21.10
2018-06-14T15:50:09.562Z,21.10
2018-06-14T15:52:36.282Z,20.90
2018-06-14T15:55:03.163Z,20.80
2018-06-14T15:57:31.108Z,20.80
2018-06-14T15:59:58.059Z,20.60
2018-06-14T16:02:25.013Z,20.50
2018-06-14T16:04:51.989Z,20.40
2018-06-14T16:07:18.911Z,20.20
2018-06-14T16:09:46.065Z,20.20
2018-06-14T16:12:13.060Z,20.10
2018-06-14T16:14:39.969Z,20.20
2018-06-14T16:17:07.023Z,20.20
2018-06-14T16:19:33.871Z,20.10
2018-06-14T16:22:00.719Z,20.10
2018-06-14T16:24:27.668Z,20.10
2018-06-14T16:26:55.600Z,20.30
2018-06-14T16:29:22.494Z,20.20
2018-06-14T16:31:49.342Z,20.40
2018-06-14T16:34:16.292Z,20.40
2018-06-14T16:36:43.961Z,20.50
2018-06-14T16:39:10.966Z,20.50
2018-06-14T16:41:37.863Z,20.50
2018-06-14T16:44:04.715Z,20.50
2018-06-14T16:46:31.661Z,20.40
2018-06-14T16:48:58.616Z,20.30
2018-06-14T16:51:25.561Z,20.30
2018-06-14T16:53:52.513Z,20.30
2018-06-14T16:56:19.394Z,20.20
2018-06-14T16:58:47.134Z,20.20
2018-06-14T17:01:14.093Z,20.20
2018-06-14T17:03:41.136Z,20.10
2018-06-14T17:06:07.883Z,20.30
2018-06-14T17:08:34.729Z,20.20
2018-06-14T17:11:01.581Z,20.10
2018-06-14T17:13:28.677Z,20.00
2018-06-14T17:15:55.582Z,20.00
2018-06-14T17:18:23.251Z,20.00
2018-06-14T17:20:50.056Z,20.00
2018-06-14T17:23:16.950Z,20.00
2018-06-14T17:25:43.900Z,19.90
2018-06-14T17:28:10.851Z,19.80
2018-06-14T17:30:37.595Z,19.80
2018-06-14T17:33:04.549Z,19.70
2018-06-14T17:35:31.398Z,19.70
2018-06-14T17:37:58.251Z,19.60
2018-06-14T17:40:25.302Z,19.50
2018-06-14T17:42:52.172Z,19.50
2018-06-14T17:45:19.103Z,19.50
2018-06-14T17:47:46.098Z,19.50
2018-06-14T17:50:13.525Z,19.60
2018-06-14T17:52:40.358Z,19.60
2018-06-14T17:55:07.344Z,19.60
2018-06-14T17:57:35.592Z,19.60
2018-06-14T18:00:02.542Z,19.70
2018-06-14T18:02:29.496Z,19.70
2018-06-14T18:04:56.342Z,19.60
2018-06-14T18:07:23.294Z,19.70
2018-06-14T18:09:50.145Z,19.70
2018-06-14T18:12:17.094Z,19.60
2018-06-14T18:14:44.046Z,19.60
2018-06-14T18:17:10.897Z,19.60
2018-06-14T18:19:38.684Z,19.60
2018-06-14T18:22:05.617Z,19.50
2018-06-14T18:24:32.471Z,19.40
2018-06-14T18:26:59.833Z,19.40
2018-06-14T18:29:27.592Z,19.10
2018-06-14T18:31:54.753Z,19.10
2018-06-14T18:34:21.597Z,19.10
2018-06-14T18:36:48.447Z,19.10
2018-06-14T18:39:15.417Z,19.00
2018-06-14T18:41:43.987Z,19.00
2018-06-14T18:44:11.687Z,19.00
2018-06-14T18:46:40.138Z,18.90
2018-06-14T18:49:06.992Z,18.90
2018-06-14T18:51:33.835Z,18.90
2018-06-14T18:54:00.687Z,18.80
2018-06-14T18:56:27.533Z,18.70
2018-06-14T18:58:54.588Z,18.70
2018-06-14T19:01:21.458Z,18.50
2018-06-14T19:03:48.285Z,18.50
2018-06-14T19:06:15.236Z,18.40
2018-06-14T19:08:42.189Z,18.40
2018-06-14T19:11:09.137Z,18.30
2018-06-14T19:13:35.989Z,18.40
2018-06-14T19:16:02.750Z,18.30
2018-06-14T19:18:29.581Z,18.20
2018-06-14T19:20:56.536Z,18.20
2018-06-14T19:23:23.484Z,18.20
2018-06-14T19:26:11.573Z,18.10
2018-06-14T19:28:43.482Z,18.10
2018-06-14T19:31:10.330Z,18.00
2018-06-14T19:33:37.188Z,18.00
2018-06-14T19:36:04.133Z,18.00
2018-06-14T19:38:31.083Z,17.90
2018-06-14T19:40:57.829Z,17.90
2018-06-14T19:43:25.086Z,17.90
2018-06-14T19:45:52.036Z,17.90
2018-06-14T19:48:18.891Z,17.80
2018-06-14T19:50:45.733Z,17.80
2018-06-14T19:53:12.686Z,17.80
2018-06-14T19:55:39.758Z,17.70
2018-06-14T19:58:07.411Z,17.60
2018-06-14T20:00:34.364Z,17.70
2018-06-14T20:03:01.307Z,17.60
2018-06-14T20:05:28.257Z,17.60
2018-06-14T20:07:55.109Z,17.50
2018-06-14T20:10:22.162Z,17.50
2018-06-14T20:12:49.544Z,17.50
2018-06-14T20:15:16.711Z,17.40
2018-06-14T20:17:44.239Z,17.30
2018-06-14T20:20:11.193Z,17.30
2018-06-14T20:22:38.247Z,17.30
2018-06-14T20:25:06.246Z,17.20
2018-06-14T20:27:33.580Z,17.20
2018-06-14T20:30:00.530Z,17.10
2018-06-14T20:32:28.310Z,17.20
2018-06-14T20:34:55.354Z,17.10
2018-06-14T20:37:22.304Z,17.10
2018-06-14T20:39:49.152Z,17.00
2018-06-14T20:42:16.104Z,16.90
2018-06-14T20:44:43.054Z,16.90
2018-06-14T20:47:09.903Z,17.00
2018-06-14T20:49:36.860Z,16.90
2018-06-14T20:52:03.806Z,16.80
2018-06-14T20:54:30.756Z,16.80
2018-06-14T20:56:57.912Z,16.80
2018-06-14T20:59:24.966Z,16.80
2018-06-14T21:01:52.018Z,16.80
2018-06-14T21:04:19.688Z,16.80
2018-06-14T21:06:46.638Z,16.70
2018-06-14T21:09:13.587Z,16.70
2018-06-14T21:11:40.539Z,16.60
2018-06-14T21:14:07.496Z,16.60
2018-06-14T21:16:36.160Z,16.50
2018-06-14T21:19:05.486Z,16.50
2018-06-14T21:21:34.311Z,16.50
2018-06-14T21:24:05.827Z,16.40
2018-06-14T21:26:34.574Z,16.40
2018-06-14T21:29:04.395Z,16.40
2018-06-14T21:31:31.397Z,16.30
2018-06-14T21:33:59.014Z,16.30
2018-06-14T21:36:30.698Z,16.30
2018-06-14T21:38:59.143Z,16.30
2018-06-14T21:41:26.264Z,16.30
2018-06-14T21:43:53.415Z,16.30
2018-06-14T21:46:20.786Z,16.20
2018-06-14T21:48:47.625Z,16.20
2018-06-14T21:51:14.473Z,16.20
2018-06-14T21:53:41.219Z,16.20
2018-06-14T21:56:08.070Z,16.10
2018-06-14T21:58:34.918Z,16.20
2018-06-14T22:01:01.870Z,16.20
2018-06-14T22:03:28.818Z,16.10
2018-06-14T22:05:55.773Z,16.10
2018-06-14T22:08:22.619Z,16.10
2018-06-14T22:10:49.473Z,16.00
2018-06-14T22:13:16.520Z,16.10
2018-06-14T22:15:43.472Z,16.10
2018-06-14T22:18:10.321Z,16.00
2018-06-14T22:20:37.271Z,16.00
2018-06-14T22:23:04.272Z,16.10
2018-06-14T22:25:31.282Z,16.00
2018-06-14T22:27:58.126Z,16.00
2018-06-14T22:30:24.975Z,16.00
2018-06-14T22:32:51.926Z,16.00
2018-06-14T22:35:18.875Z,15.90
2018-06-14T22:37:45.725Z,15.90
2018-06-14T22:40:13.088Z,15.90
2018-06-14T22:42:39.934Z,15.90
2018-06-14T22:45:06.884Z,15.90
2018-06-14T22:47:33.836Z,15.90
2018-06-14T22:50:00.786Z,15.90
2018-06-14T22:52:27.636Z,15.80
2018-06-14T22:54:54.483Z,15.80
2018-06-14T22:57:21.436Z,15.80
2018-06-14T22:59:48.384Z,15.80
2018-06-14T23:02:15.237Z,15.80
2018-06-14T23:04:42.187Z,15.80
2018-06-14T23:07:09.136Z,15.80
2018-06-14T23:09:36.087Z,15.80
2018-06-14T23:12:02.939Z,15.80
2018-06-14T23:14:29.783Z,15.80
2018-06-14T23:16:56.738Z,15.80
2018-06-14T23:19:23.687Z,15.80
2018-06-14T23:21:50.844Z,15.80
2018-06-14T23:24:17.793Z,15.80
2018-06-14T23:26:45.562Z,15.90
2018-06-14T23:29:12.515Z,15.80
2018-06-14T23:31:39.567Z,15.80
2018-06-14T23:34:06.417Z,15.90
2018-06-14T23:36:33.263Z,15.90
2018-06-14T23:39:00.213Z,15.80
2018-06-14T23:41:27.169Z,15.80
2018-06-14T23:43:54.425Z,15.90
2018-06-14T23:46:21.376Z,15.90
2018-06-14T23:48:48.328Z,15.90
2018-06-14T23:51:15.279Z,15.90
2018-06-14T23:53:42.236Z,15.90
2018-06-14T23:56:09.080Z,15.80
2018-06-14T23:58:36.028Z,15.90
